Time;durP1;ratioP1;P1;durP2;ratioP2;P2;SDS_P1;SDS_P2;PMS_P1;PMS_P2;Temp;Humidity;BMP_temperature;BMP_pressure;BME280_temperature;BME280_humidity;BME280_pressure;Samples;Min_cycle;Max_cycle;Signal;HPM_P1;HPM_P2
2023/04/09 00:00:36;;;;;;;26.07;19.40;;;5.20;1.00;;;;;;5045092;28;20458;-56
2023/04/09 00:03:02;;;;;;;23.83;18.67;;;5.20;1.00;;;;;;5039712;28;20299;-56
2023/04/09 00:05:28;;;;;;;30.77;20.77;;;5.20;1.00;;;;;;5036052;28;20242;-53
2023/04/09 00:07:53;;;;;;;28.90;20.10;;;5.20;1.00;;;;;;5046741;28;20196;-53
2023/04/09 00:10:19;;;;;;;26.70;19.20;;;5.10;1.00;;;;;;5055289;28;20683;-54
2023/04/09 00:12:45;;;;;;;26.90;20.10;;;5.10;1.00;;;;;;5042929;28;22233;-54
2023/04/09 00:15:11;;;;;;;28.90;20.10;;;5.10;1.00;;;;;;5043361;28;20246;-56
2023/04/09 00:17:36;;;;;;;29.93;19.57;;;5.10;1.00;;;;;;5042753;28;20451;-55
2023/04/09 00:20:03;;;;;;;27.50;20.93;;;5.10;1.00;;;;;;5047277;28;20188;-55
2023/04/09 00:22:29;;;;;;;28.80;21.10;;;5.00;1.00;;;;;;5044469;28;20258;-52
2023/04/09 00:24:56;;;;;;;28.07;20.40;;;4.90;1.00;;;;;;5037538;28;20455;-53
2023/04/09 00:27:21;;;;;;;24.37;19.67;;;5.00;1.00;;;;;;5043736;28;20451;-54
2023/04/09 00:29:47;;;;;;;27.43;20.70;;;5.00;1.00;;;;;;5042830;28;20457;-53
2023/04/09 00:32:13;;;;;;;28.87;21.83;;;5.00;1.00;;;;;;5041960;28;20188;-52
2023/04/09 00:34:39;;;;;;;27.17;21.33;;;4.90;1.00;;;;;;5044526;28;20200;-54
2023/04/09 00:37:04;;;;;;;32.87;22.37;;;5.00;1.00;;;;;;5038905;28;20757;-51
2023/04/09 00:39:30;;;;;;;35.63;22.20;;;4.90;1.00;;;;;;5045162;28;20455;-55
2023/04/09 00:42:03;;;;;;;30.67;22.00;;;4.90;1.00;;;;;;5041817;28;20207;-54
2023/04/09 00:44:28;;;;;;;30.17;21.10;;;4.90;1.00;;;;;;5041619;28;20184;-54
2023/04/09 00:46:54;;;;;;;30.97;21.83;;;4.90;1.00;;;;;;5036848;28;20458;-53
2023/04/09 00:49:21;;;;;;;26.33;19.33;;;4.90;1.00;;;;;;5045397;28;20326;-52
2023/04/09 00:51:47;;;;;;;29.53;21.40;;;5.00;1.00;;;;;;5039907;28;20886;-54
2023/04/09 00:54:13;;;;;;;31.23;22.60;;;4.70;1.00;;;;;;5048996;28;20506;-55
2023/04/09 00:56:41;;;;;;;29.03;22.20;;;5.00;1.00;;;;;;5043893;28;20447;-55
2023/04/09 00:59:07;;;;;;;28.57;20.00;;;4.90;1.00;;;;;;5038660;28;21220;-54
2023/04/09 01:01:32;;;;;;;32.37;21.93;;;4.90;1.00;;;;;;5047011;28;21216;-55
2023/04/09 01:03:58;;;;;;;28.50;22.23;;;4.90;1.00;;;;;;5046591;28;20450;-53
2023/04/09 01:06:31;;;;;;;27.50;20.57;;;4.90;1.00;;;;;;5042957;28;20185;-55
2023/04/09 01:09:31;;;;;;;24.73;21.40;;;5.00;1.00;;;;;;5032554;28;20184;-53
2023/04/09 01:12:03;;;;;;;31.93;22.47;;;5.10;1.00;;;;;;5042888;28;20454;-53
2023/04/09 01:14:50;;;;;;;28.10;21.70;;;5.20;1.00;;;;;;5046028;28;20856;-53
2023/04/09 01:17:29;;;;;;;28.80;21.43;;;5.30;1.00;;;;;;5050679;28;20438;-55
2023/04/09 01:20:07;;;;;;;27.60;20.87;;;5.20;1.00;;;;;;5046490;28;21038;-53
2023/04/09 01:22:55;;;;;;;28.53;21.13;;;5.30;1.00;;;;;;5036363;28;20578;-54
2023/04/09 01:25:47;;;;;;;31.23;21.80;;;5.20;1.00;;;;;;5045563;28;20454;-53
2023/04/09 01:28:17;;;;;;;28.40;21.93;;;5.30;1.00;;;;;;5047724;28;20453;-54
2023/04/09 01:30:47;;;;;;;32.17;22.27;;;5.30;1.00;;;;;;5047172;28;20447;-53
2023/04/09 01:33:15;;;;;;;34.50;21.60;;;5.30;1.00;;;;;;5034707;28;20547;-53
2023/04/09 01:35:43;;;;;;;28.17;20.37;;;5.30;1.00;;;;;;5044034;28;20818;-54
2023/04/09 01:38:11;;;;;;;26.53;19.77;;;5.30;1.00;;;;;;5046950;28;20519;-52
2023/04/09 01:40:37;;;;;;;24.97;19.87;;;5.20;1.00;;;;;;5046492;28;20446;-55
2023/04/09 01:43:05;;;;;;;28.87;20.73;;;5.10;1.00;;;;;;5042127;28;20543;-54
2023/04/09 01:45:31;;;;;;;27.90;21.23;;;5.00;1.00;;;;;;5047499;28;20189;-55
2023/04/09 01:47:57;;;;;;;28.30;20.20;;;5.00;1.00;;;;;;5042318;28;20973;-53
2023/04/09 01:50:23;;;;;;;31.97;21.80;;;5.00;1.00;;;;;;5034047;28;20447;-53
2023/04/09 01:52:49;;;;;;;30.40;21.00;;;4.90;1.00;;;;;;5047591;28;20439;-52
2023/04/09 01:55:15;;;;;;;28.67;19.73;;;4.80;1.00;;;;;;5040460;28;20272;-53
2023/04/09 01:57:40;;;;;;;28.47;20.73;;;4.80;1.00;;;;;;5052646;28;20842;-53
2023/04/09 02:00:08;;;;;;;33.63;22.30;;;4.90;1.00;;;;;;5045599;28;20680;-53
2023/04/09 02:02:41;;;;;;;29.67;21.40;;;4.90;1.00;;;;;;5038620;28;20232;-53
2023/04/09 02:05:10;;;;;;;29.13;21.57;;;4.80;1.00;;;;;;5041750;28;20466;-55
2023/04/09 02:07:47;;;;;;;30.27;20.73;;;4.90;1.00;;;;;;5045949;28;20476;-52
2023/04/09 02:10:16;;;;;;;28.03;21.67;;;4.90;1.00;;;;;;5043996;28;20456;-55
2023/04/09 02:12:47;;;;;;;30.87;21.37;;;4.90;1.00;;;;;;5047016;28;21102;-54
2023/04/09 02:15:14;;;;;;;25.80;20.00;;;4.90;1.00;;;;;;5048246;28;20493;-54
2023/04/09 02:17:40;;;;;;;29.70;21.73;;;4.90;1.00;;;;;;5041990;28;20451;-53
2023/04/09 02:20:06;;;;;;;29.70;21.23;;;4.90;1.00;;;;;;5046164;28;20480;-54
2023/04/09 02:22:32;;;;;;;30.73;21.53;;;5.00;1.00;;;;;;5045578;28;20523;-54
2023/04/09 02:24:57;;;;;;;28.70;21.60;;;4.90;1.00;;;;;;5043554;28;21118;-52
2023/04/09 02:27:23;;;;;;;31.53;21.43;;;4.90;1.00;;;;;;5046766;28;20188;-53
2023/04/09 02:29:49;;;;;;;30.23;21.33;;;4.80;1.00;;;;;;5039494;28;20542;-54
2023/04/09 02:32:15;;;;;;;30.90;22.47;;;4.80;1.00;;;;;;5040089;28;20188;-54
2023/04/09 02:34:41;;;;;;;31.20;21.73;;;4.90;1.00;;;;;;5035109;28;20843;-55
2023/04/09 02:37:06;;;;;;;29.67;22.60;;;4.80;1.00;;;;;;5042516;28;20215;-53
2023/04/09 02:39:32;;;;;;;29.30;20.20;;;4.70;1.00;;;;;;5046776;28;20455;-53
2023/04/09 02:41:58;;;;;;;29.70;21.67;;;4.80;1.00;;;;;;5039255;28;20342;-55
2023/04/09 02:44:23;;;;;;;32.53;23.40;;;4.90;1.00;;;;;;5045254;28;20185;-54
2023/04/09 02:46:53;;;;;;;27.47;19.43;;;4.80;1.00;;;;;;5040582;28;20195;-56
2023/04/09 02:49:18;;;;;;;31.17;21.10;;;4.70;1.00;;;;;;5046586;28;20203;-52
2023/04/09 02:51:44;;;;;;;30.33;21.53;;;4.70;1.00;;;;;;5042279;28;20452;-53
2023/04/09 02:54:10;;;;;;;32.43;22.33;;;4.80;1.00;;;;;;5041168;28;20335;-53
2023/04/09 02:56:35;;;;;;;30.63;20.93;;;4.70;1.00;;;;;;5046808;28;20444;-55
2023/04/09 02:59:01;;;;;;;30.97;21.20;;;4.70;1.00;;;;;;5047493;28;20180;-53
2023/04/09 03:01:27;;;;;;;27.63;20.30;;;4.60;1.00;;;;;;5042374;28;20216;-55
2023/04/09 03:03:52;;;;;;;27.30;19.87;;;4.50;1.00;;;;;;5051248;28;20701;-54
2023/04/09 03:06:18;;;;;;;30.10;21.00;;;4.40;1.00;;;;;;5047570;28;20199;-52
2023/04/09 03:08:44;;;;;;;29.03;21.30;;;4.50;1.00;;;;;;5044632;28;20181;-55
2023/04/09 03:11:09;;;;;;;29.47;21.50;;;4.40;1.00;;;;;;5046871;28;20184;-52
2023/04/09 03:13:35;;;;;;;29.10;20.73;;;4.50;1.00;;;;;;5046338;28;20224;-53
2023/04/09 03:16:00;;;;;;;29.73;20.93;;;4.50;1.00;;;;;;5044229;28;20188;-53
2023/04/09 03:18:26;;;;;;;29.47;21.23;;;4.40;1.00;;;;;;5046789;28;20199;-53
2023/04/09 03:20:52;;;;;;;29.27;20.50;;;4.50;1.00;;;;;;5060139;28;20200;-55
2023/04/09 03:23:17;;;;;;;30.33;21.03;;;4.50;1.00;;;;;;5043471;28;20220;-56
2023/04/09 03:25:43;;;;;;;29.10;21.83;;;4.50;1.00;;;;;;5039457;28;20185;-53
2023/04/09 03:28:08;;;;;;;28.43;20.93;;;4.70;1.00;;;;;;5044306;28;20180;-54
2023/04/09 03:30:34;;;;;;;31.27;22.00;;;4.80;1.00;;;;;;5049267;28;20603;-54
2023/04/09 03:33:00;;;;;;;32.73;22.87;;;4.80;1.00;;;;;;5041737;28;20188;-55
2023/04/09 03:35:25;;;;;;;34.90;23.50;;;4.90;1.00;;;;;;5043043;28;20538;-53
2023/04/09 03:37:51;;;;;;;29.50;21.43;;;4.90;1.00;;;;;;5041332;28;20192;-53
2023/04/09 03:40:16;;;;;;;29.10;21.20;;;4.90;1.00;;;;;;5048142;28;20248;-54
2023/04/09 03:42:42;;;;;;;30.40;21.00;;;5.00;1.00;;;;;;5043000;28;20216;-54
2023/04/09 03:45:08;;;;;;;29.80;21.50;;;5.00;1.00;;;;;;5041138;28;20184;-53
2023/04/09 03:47:34;;;;;;;31.77;22.57;;;4.90;1.00;;;;;;5041388;28;21048;-52
2023/04/09 03:50:00;;;;;;;34.00;20.77;;;4.90;1.00;;;;;;5046049;28;20462;-54
2023/04/09 03:52:26;;;;;;;27.50;19.63;;;5.00;1.00;;;;;;5044961;28;20177;-53
2023/04/09 03:54:52;;;;;;;30.57;21.10;;;5.00;1.00;;;;;;5041189;28;20836;-55
2023/04/09 03:57:17;;;;;;;26.50;19.53;;;5.00;1.00;;;;;;5045884;28;20320;-55
2023/04/09 03:59:44;;;;;;;32.17;21.90;;;5.00;1.00;;;;;;5044731;28;20231;-55
2023/04/09 04:02:09;;;;;;;28.10;21.30;;;5.10;1.00;;;;;;5044463;28;20214;-52
2023/04/09 04:04:35;;;;;;;28.53;21.07;;;5.10;1.00;;;;;;5039350;28;20454;-52
2023/04/09 04:07:02;;;;;;;28.17;20.80;;;5.10;1.00;;;;;;5047525;28;20698;-54
2023/04/09 04:09:27;;;;;;;32.97;21.07;;;5.10;1.00;;;;;;5041934;28;20243;-53
2023/04/09 04:11:54;;;;;;;27.40;20.70;;;5.20;1.00;;;;;;5045206;28;20482;-52
2023/04/09 04:14:20;;;;;;;30.47;21.70;;;5.20;1.00;;;;;;5045919;28;20204;-53
2023/04/09 04:16:45;;;;;;;34.57;22.73;;;5.20;1.00;;;;;;5042382;28;20461;-53
2023/04/09 04:19:11;;;;;;;30.70;21.33;;;5.20;1.00;;;;;;5044347;28;20184;-56
2023/04/09 04:21:37;;;;;;;28.33;21.00;;;5.30;1.00;;;;;;5046902;28;20200;-53
2023/04/09 04:24:02;;;;;;;29.40;21.03;;;5.40;1.00;;;;;;5041140;28;20189;-54
2023/04/09 04:26:28;;;;;;;31.33;21.53;;;5.40;1.00;;;;;;5042081;28;20272;-55
2023/04/09 04:28:54;;;;;;;26.20;20.07;;;5.30;1.00;;;;;;5035641;28;20188;-53
2023/04/09 04:31:19;;;;;;;26.17;19.57;;;5.40;1.00;;;;;;5045062;28;20200;-54
2023/04/09 04:33:45;;;;;;;28.87;21.00;;;5.30;1.00;;;;;;5044797;28;20215;-54
2023/04/09 04:36:12;;;;;;;29.40;20.10;;;5.40;1.00;;;;;;5047316;28;20199;-55
2023/04/09 04:38:40;;;;;;;27.53;20.67;;;5.40;1.00;;;;;;5048474;28;20188;-54
2023/04/09 04:41:06;;;;;;;27.90;20.57;;;5.40;1.00;;;;;;5047872;28;20443;-54
2023/04/09 04:43:31;;;;;;;32.23;21.73;;;5.40;1.00;;;;;;5043669;28;20547;-54
2023/04/09 04:45:58;;;;;;;31.83;21.77;;;5.30;1.00;;;;;;5048287;28;20295;-52
2023/04/09 04:48:24;;;;;;;30.30;20.50;;;5.30;1.00;;;;;;5046853;28;20459;-55
2023/04/09 04:51:00;;;;;;;31.00;22.03;;;5.30;1.00;;;;;;5044306;28;20466;-55
2023/04/09 04:53:26;;;;;;;28.90;20.93;;;5.30;1.00;;;;;;5043194;28;20185;-54
2023/04/09 04:55:51;;;;;;;29.97;22.27;;;5.30;1.00;;;;;;5044417;28;20532;-54
2023/04/09 04:58:17;;;;;;;32.33;22.60;;;5.30;1.00;;;;;;5045020;28;20450;-54
2023/04/09 05:00:43;;;;;;;29.27;21.40;;;5.50;1.00;;;;;;5048786;28;20192;-52
2023/04/09 05:03:09;;;;;;;27.23;20.80;;;5.60;1.00;;;;;;5050454;28;20466;-53
2023/04/09 05:05:35;;;;;;;29.57;21.80;;;5.60;1.00;;;;;;5047427;28;20462;-55
2023/04/09 05:08:01;;;;;;;29.37;22.90;;;5.50;1.00;;;;;;5049312;28;20478;-55
2023/04/09 05:10:26;;;;;;;30.30;22.60;;;5.50;1.00;;;;;;5047772;28;20185;-52
2023/04/09 05:12:52;;;;;;;28.20;21.83;;;5.50;1.00;;;;;;5043197;28;20224;-52
2023/04/09 05:15:17;;;;;;;28.37;21.37;;;5.60;1.00;;;;;;5046665;28;20245;-54
2023/04/09 05:17:44;;;;;;;29.73;22.13;;;5.60;1.00;;;;;;5045641;28;20913;-53
2023/04/09 05:20:10;;;;;;;29.53;22.57;;;5.60;1.00;;;;;;5047864;28;20478;-55
2023/04/09 05:22:36;;;;;;;29.00;21.13;;;5.70;1.00;;;;;;5043662;28;20532;-53
2023/04/09 05:25:02;;;;;;;27.87;21.10;;;5.70;1.00;;;;;;5047210;28;20450;-55
2023/04/09 05:27:28;;;;;;;29.53;22.43;;;5.80;1.00;;;;;;5046990;28;20439;-54
2023/04/09 05:29:54;;;;;;;31.67;22.20;;;5.90;1.00;;;;;;5044551;28;20465;-55
2023/04/09 05:32:20;;;;;;;30.20;23.50;;;6.10;1.00;;;;;;5044126;28;20192;-53
2023/04/09 05:34:46;;;;;;;29.63;21.17;;;6.20;1.00;;;;;;5049077;28;20809;-52
2023/04/09 05:37:12;;;;;;;29.27;22.27;;;6.20;1.00;;;;;;5046695;28;20195;-52
2023/04/09 05:39:37;;;;;;;26.60;20.23;;;6.30;1.00;;;;;;5045721;28;20442;-54
2023/04/09 05:42:03;;;;;;;30.83;22.50;;;6.40;1.00;;;;;;5049493;28;20255;-53
2023/04/09 05:44:29;;;;;;;27.37;20.83;;;6.50;1.00;;;;;;5048395;28;20177;-54
2023/04/09 05:46:55;;;;;;;27.40;22.20;;;6.60;1.00;;;;;;5040420;28;20474;-54
2023/04/09 05:49:21;;;;;;;28.60;21.83;;;6.70;1.00;;;;;;5044826;28;20192;-55
2023/04/09 05:51:46;;;;;;;28.90;21.10;;;6.80;1.00;;;;;;5040440;28;20451;-55
2023/04/09 05:54:12;;;;;;;29.67;22.00;;;7.00;1.00;;;;;;5043187;28;20251;-54
2023/04/09 05:56:38;;;;;;;30.43;22.67;;;7.20;1.00;;;;;;5045418;28;20198;-57
2023/04/09 05:59:03;;;;;;;27.93;21.73;;;7.60;1.00;;;;;;5046942;28;20258;-53
2023/04/09 06:01:29;;;;;;;28.80;22.50;;;7.70;1.00;;;;;;5037003;28;20562;-53
2023/04/09 06:03:55;;;;;;;30.10;22.57;;;7.90;1.00;;;;;;5045193;28;20181;-53
2023/04/09 06:06:20;;;;;;;27.63;21.40;;;8.00;1.00;;;;;;5041450;28;20204;-53
2023/04/09 06:08:46;;;;;;;28.00;21.03;;;8.10;1.00;;;;;;5037043;28;20267;-53
2023/04/09 06:11:12;;;;;;;30.53;22.70;;;8.10;1.00;;;;;;5048322;28;20720;-53
2023/04/09 06:13:39;;;;;;;28.90;21.63;;;8.20;1.00;;;;;;5046337;28;20258;-55
2023/04/09 06:16:06;;;;;;;26.07;21.53;;;8.10;1.00;;;;;;5067289;28;20442;-54
2023/04/09 06:18:31;;;;;;;28.90;19.93;;;7.90;1.00;;;;;;5068516;28;20963;-54
2023/04/09 06:21:05;;;;;;;31.00;21.40;;;7.70;1.00;;;;;;5048220;28;20496;-53
2023/04/09 06:23:32;;;;;;;29.00;21.07;;;7.60;1.00;;;;;;5041938;28;20736;-56
2023/04/09 06:25:57;;;;;;;29.30;22.10;;;7.70;1.00;;;;;;5043083;28;20916;-55
2023/04/09 06:28:23;;;;;;;29.10;22.43;;;7.80;1.00;;;;;;5049306;28;20470;-53
2023/04/09 06:30:48;;;;;;;27.03;21.73;;;7.60;1.00;;;;;;5047868;28;20699;-53
2023/04/09 06:33:14;;;;;;;29.80;21.07;;;7.60;1.00;;;;;;5044814;28;20250;-53
2023/04/09 06:35:40;;;;;;;29.03;21.30;;;7.60;1.00;;;;;;5049155;28;20188;-54
2023/04/09 06:38:06;;;;;;;27.13;20.53;;;7.70;1.00;;;;;;5043468;28;20508;-55
2023/04/09 06:40:32;;;;;;;32.47;21.70;;;7.80;1.00;;;;;;5044248;28;20447;-54
2023/04/09 06:42:57;;;;;;;31.73;23.20;;;7.90;1.00;;;;;;5048753;28;20454;-54
2023/04/09 06:45:23;;;;;;;26.00;19.40;;;8.00;1.00;;;;;;5044411;28;20180;-53
2023/04/09 06:47:48;;;;;;;28.20;22.10;;;8.10;1.00;;;;;;5042437;28;20211;-53
2023/04/09 06:50:14;;;;;;;26.40;20.40;;;8.20;1.00;;;;;;5046031;28;20352;-52
2023/04/09 06:52:40;;;;;;;30.40;22.20;;;8.30;1.00;;;;;;5045187;28;20275;-55
2023/04/09 06:55:06;;;;;;;31.00;22.40;;;8.40;1.00;;;;;;5044265;28;20232;-52
2023/04/09 06:57:32;;;;;;;28.90;21.10;;;8.50;1.00;;;;;;5045290;28;20517;-54
2023/04/09 06:59:57;;;;;;;29.57;22.93;;;8.70;1.00;;;;;;5041804;28;20451;-55
2023/04/09 07:02:23;;;;;;;29.90;23.33;;;8.80;1.00;;;;;;5044841;28;20742;-55
2023/04/09 07:04:50;;;;;;;29.27;23.13;;;8.80;1.00;;;;;;5042419;28;20212;-55
2023/04/09 07:07:15;;;;;;;30.20;22.63;;;8.90;1.00;;;;;;5048920;28;20446;-53
2023/04/09 07:09:41;;;;;;;29.00;22.50;;;8.80;1.00;;;;;;5046149;28;20211;-54
2023/04/09 07:12:07;;;;;;;32.07;22.97;;;8.90;1.00;;;;;;5047301;28;20905;-53
2023/04/09 07:14:33;;;;;;;34.83;26.70;;;9.10;1.00;;;;;;5044528;28;20272;-53
2023/04/09 07:16:58;;;;;;;30.80;24.50;;;9.20;1.00;;;;;;5048755;28;20276;-53
2023/04/09 07:19:24;;;;;;;32.50;23.80;;;9.40;1.00;;;;;;5046779;28;20215;-55
2023/04/09 07:21:49;;;;;;;28.73;22.77;;;9.60;1.00;;;;;;5040220;28;20212;-53
2023/04/09 07:24:15;;;;;;;30.20;23.90;;;9.60;1.00;;;;;;5044671;28;20188;-53
2023/04/09 07:26:41;;;;;;;27.60;22.43;;;9.70;1.00;;;;;;5046792;28;20188;-54
2023/04/09 07:29:07;;;;;;;29.03;23.90;;;9.70;1.00;;;;;;5045073;28;20197;-54
2023/04/09 07:31:32;;;;;;;30.47;25.77;;;9.80;1.00;;;;;;5047245;28;20487;-53
2023/04/09 07:33:58;;;;;;;33.37;25.00;;;9.80;1.00;;;;;;5047260;28;20196;-53
2023/04/09 07:36:24;;;;;;;30.30;24.77;;;9.90;1.00;;;;;;5043781;28;20199;-54
2023/04/09 07:38:50;;;;;;;31.50;24.90;;;9.90;1.00;;;;;;5040379;28;20197;-55
2023/04/09 07:41:15;;;;;;;29.30;24.00;;;9.80;1.00;;;;;;5045329;28;20501;-54
2023/04/09 07:43:41;;;;;;;30.97;24.33;;;9.90;1.00;;;;;;5053206;28;20241;-54
2023/04/09 07:46:07;;;;;;;28.87;23.27;;;10.10;1.00;;;;;;5047082;28;20185;-55
2023/04/09 07:48:33;;;;;;;34.63;25.40;;;10.50;1.00;;;;;;5046084;28;20446;-54
2023/04/09 07:50:59;;;;;;;30.40;23.73;;;10.70;1.00;;;;;;5044809;28;20570;-53
2023/04/09 07:53:24;;;;;;;27.47;24.07;;;11.10;1.00;;;;;;5044361;28;20188;-54
2023/04/09 07:55:50;;;;;;;30.07;23.10;;;11.40;1.00;;;;;;5043475;28;20465;-53
2023/04/09 07:58:16;;;;;;;33.13;26.33;;;11.50;1.00;;;;;;5049875;28;20218;-53
2023/04/09 08:00:42;;;;;;;29.50;23.03;;;11.50;1.00;;;;;;5047455;28;20443;-54
2023/04/09 08:03:08;;;;;;;28.10;23.33;;;11.50;1.00;;;;;;5046237;28;20642;-53
2023/04/09 08:05:35;;;;;;;30.80;24.70;;;11.60;1.00;;;;;;5048975;28;20185;-53
2023/04/09 08:08:00;;;;;;;28.93;24.53;;;11.50;1.00;;;;;;5044578;28;20451;-52
2023/04/09 08:10:26;;;;;;;29.73;25.20;;;11.40;1.00;;;;;;5046066;28;20447;-55
2023/04/09 08:12:52;;;;;;;31.73;25.20;;;11.10;1.00;;;;;;5042986;28;20211;-56
2023/04/09 08:15:17;;;;;;;28.83;23.43;;;10.90;1.00;;;;;;5044520;28;20275;-54
2023/04/09 08:17:43;;;;;;;29.57;23.97;;;10.90;1.00;;;;;;5045675;28;20238;-53
2023/04/09 08:20:09;;;;;;;29.20;23.73;;;10.90;1.00;;;;;;5041841;28;20246;-56
2023/04/09 08:22:35;;;;;;;30.03;22.90;;;11.00;1.00;;;;;;5046753;28;20205;-54
2023/04/09 08:25:01;;;;;;;29.00;24.00;;;10.90;1.00;;;;;;5043183;28;20458;-55
2023/04/09 08:27:26;;;;;;;26.43;23.47;;;10.80;1.00;;;;;;5048763;28;20474;-55
2023/04/09 08:29:52;;;;;;;29.57;22.57;;;10.60;1.00;;;;;;5048753;28;20188;-53
2023/04/09 08:32:17;;;;;;;29.47;23.17;;;10.70;1.00;;;;;;5046699;28;20191;-53
2023/04/09 08:34:43;;;;;;;29.70;22.50;;;11.00;1.00;;;;;;5045496;28;20275;-52
2023/04/09 08:37:09;;;;;;;26.20;21.73;;;11.50;1.00;;;;;;5044250;28;20184;-53
2023/04/09 08:39:35;;;;;;;27.70;22.43;;;11.90;1.00;;;;;;5039113;28;20225;-54
2023/04/09 08:42:01;;;;;;;27.27;22.37;;;12.10;1.00;;;;;;5043851;28;20230;-53
2023/04/09 08:44:28;;;;;;;28.97;23.90;;;12.10;99.90;;;;;;5044141;28;20443;-53
2023/04/09 08:46:54;;;;;;;27.70;23.33;;;12.30;99.90;;;;;;5046064;28;20454;-53
2023/04/09 08:49:20;;;;;;;28.90;22.97;;;12.50;99.90;;;;;;5039398;28;20450;-54
2023/04/09 08:51:47;;;;;;;29.50;25.80;;;12.60;99.90;;;;;;5032771;28;20458;-53
2023/04/09 08:54:18;;;;;;;25.77;22.57;;;12.70;99.90;;;;;;5046610;28;20478;-56
2023/04/09 08:56:45;;;;;;;29.43;24.13;;;12.60;99.90;;;;;;5044518;28;20819;-53
2023/04/09 08:59:14;;;;;;;28.70;25.37;;;12.90;99.90;;;;;;5043501;28;20459;-53
2023/04/09 09:01:40;;;;;;;26.27;23.17;;;13.20;99.90;;;;;;5045323;28;20506;-54
2023/04/09 09:04:07;;;;;;;27.90;24.50;;;13.60;99.90;;;;;;5044440;28;20478;-54
2023/04/09 09:06:35;;;;;;;29.53;25.03;;;13.90;99.90;;;;;;5045718;28;20215;-53
2023/04/09 09:09:11;;;;;;;27.90;24.90;;;13.90;99.90;;;;;;5046464;28;20954;-53
2023/04/09 09:11:40;;;;;;;30.13;26.80;;;14.50;99.90;;;;;;5039475;28;20451;-55
2023/04/09 09:14:07;;;;;;;27.10;23.20;;;15.20;99.90;;;;;;5056393;28;20834;-55
2023/04/09 09:16:41;;;;;;;27.37;24.47;;;15.60;99.90;;;;;;5057714;28;20421;-54
2023/04/09 09:19:07;;;;;;;29.60;24.13;;;15.70;99.90;;;;;;5046583;28;20508;-55
2023/04/09 09:21:35;;;;;;;30.20;25.50;;;15.70;99.90;;;;;;5057433;28;20956;-55
2023/04/09 09:24:01;;;;;;;27.87;24.77;;;15.60;99.90;;;;;;5071767;28;21083;-56
2023/04/09 09:26:29;;;;;;;27.33;24.40;;;15.60;99.90;;;;;;5051288;28;20951;-53
2023/04/09 09:28:59;;;;;;;28.97;25.77;;;15.60;99.90;;;;;;5054069;28;20500;-54
2023/04/09 09:31:25;;;;;;;31.13;25.63;;;15.20;99.90;;;;;;5050108;28;20534;-55
2023/04/09 09:33:51;;;;;;;27.80;24.10;;;15.10;99.90;;;;;;5051999;28;20454;-55
2023/04/09 09:36:31;;;;;;;30.60;26.30;;;15.30;99.90;;;;;;5045896;28;20452;-53
2023/04/09 09:39:01;;;;;;;27.87;24.93;;;15.40;99.90;;;;;;5050124;28;20489;-55
2023/04/09 09:41:27;;;;;;;28.83;25.67;;;15.30;99.90;;;;;;5050648;28;20439;-55
2023/04/09 09:43:52;;;;;;;28.87;24.97;;;15.10;99.90;;;;;;5051983;28;20455;-54
2023/04/09 09:46:20;;;;;;;29.47;24.80;;;14.80;99.90;;;;;;5048397;28;20443;-56
2023/04/09 09:48:45;;;;;;;29.50;25.60;;;14.80;99.90;;;;;;5051586;28;20443;-55
2023/04/09 09:51:13;;;;;;;28.03;25.00;;;15.10;99.90;;;;;;5047745;28;20538;-54
2023/04/09 09:53:40;;;;;;;30.63;26.07;;;15.40;99.90;;;;;;5046694;28;20726;-55
2023/04/09 09:56:12;;;;;;;28.60;25.27;;;15.50;99.90;;;;;;5047899;28;20451;-55
2023/04/09 09:58:45;;;;;;;26.77;23.97;;;15.60;99.90;;;;;;5067828;28;20466;-54
2023/04/09 10:01:13;;;;;;;28.60;25.47;;;16.00;99.90;;;;;;5061680;28;20474;-54
2023/04/09 10:03:42;;;;;;;30.67;26.53;;;16.40;99.90;;;;;;5059322;28;20554;-55
2023/04/09 10:06:09;;;;;;;29.90;26.80;;;16.70;99.90;;;;;;5051422;28;20442;-53
2023/04/09 10:08:37;;;;;;;29.60;26.40;;;16.60;99.90;;;;;;5051238;28;20442;-54
2023/04/09 10:11:04;;;;;;;32.50;27.20;;;16.40;99.90;;;;;;5045711;28;20447;-54
2023/04/09 10:13:34;;;;;;;36.73;28.57;;;16.00;99.90;;;;;;5070598;28;20417;-55
2023/04/09 10:16:00;;;;;;;28.03;24.63;;;15.70;99.90;;;;;;5059516;28;20450;-54
2023/04/09 10:18:27;;;;;;;29.70;26.17;;;15.80;99.90;;;;;;5070761;28;20474;-54
2023/04/09 10:21:04;;;;;;;30.30;25.73;;;15.40;99.90;;;;;;5049443;28;20474;-54
2023/04/09 10:23:38;;;;;;;26.93;23.53;;;15.50;99.90;;;;;;5047988;28;20470;-53
2023/04/09 10:26:04;;;;;;;31.00;25.87;;;15.60;99.90;;;;;;5046311;28;20446;-53
2023/04/09 10:28:30;;;;;;;29.57;24.67;;;15.50;99.90;;;;;;5047719;28;20455;-55
2023/04/09 10:30:57;;;;;;;28.97;25.57;;;15.30;99.90;;;;;;5047922;28;20451;-55
2023/04/09 10:33:27;;;;;;;28.60;25.60;;;15.20;99.90;;;;;;5046922;28;20185;-54
2023/04/09 10:35:54;;;;;;;29.37;26.23;;;15.30;99.90;;;;;;5047500;28;20451;-53
2023/04/09 10:38:37;;;;;;;28.10;24.70;;;15.40;99.90;;;;;;5044608;28;20458;-55
2023/04/09 10:41:14;;;;;;;29.97;25.73;;;15.40;99.90;;;;;;5048847;28;21088;-55
2023/04/09 10:43:40;;;;;;;29.23;23.70;;;15.60;99.90;;;;;;5048462;28;20801;-53
2023/04/09 10:46:23;;;;;;;29.83;24.37;;;15.40;99.90;;;;;;5041006;28;20509;-53
2023/04/09 10:49:06;;;;;;;25.50;22.80;;;15.50;99.90;;;;;;5043454;28;20213;-55
2023/04/09 10:51:37;;;;;;;29.77;25.57;;;15.30;99.90;;;;;;5048020;28;20465;-54
2023/04/09 10:54:04;;;;;;;28.90;25.77;;;15.30;99.90;;;;;;5048487;28;20433;-53
2023/04/09 10:56:30;;;;;;;29.67;24.93;;;15.20;99.90;;;;;;5048979;28;20832;-55
2023/04/09 10:58:56;;;;;;;29.37;24.10;;;15.40;99.90;;;;;;5039426;28;20532;-53
2023/04/09 11:01:22;;;;;;;27.50;24.13;;;15.50;99.90;;;;;;5058617;28;20267;-55
2023/04/09 11:04:07;;;;;;;25.07;21.93;;;15.60;99.90;;;;;;5070192;28;20604;-55
2023/04/09 11:06:36;;;;;;;25.63;22.93;;;15.70;99.90;;;;;;5054842;28;20459;-54
2023/04/09 11:09:03;;;;;;;25.97;23.17;;;15.70;99.90;;;;;;5046383;28;20455;-54
2023/04/09 11:11:29;;;;;;;23.37;20.97;;;15.70;99.90;;;;;;5043557;28;20454;-54
2023/04/09 11:14:00;;;;;;;25.50;22.90;;;15.60;99.90;;;;;;5048306;28;20603;-53
2023/04/09 11:16:29;;;;;;;27.87;24.87;;;15.70;99.90;;;;;;5045356;28;20188;-55
2023/04/09 11:18:56;;;;;;;26.40;23.60;;;16.10;99.90;;;;;;5048649;28;20451;-54
2023/04/09 11:21:26;;;;;;;28.17;25.17;;;16.50;99.90;;;;;;5049965;28;20418;-54
2023/04/09 11:23:52;;;;;;;27.30;24.33;;;16.70;99.90;;;;;;5048126;28;20417;-54
2023/04/09 11:26:33;;;;;;;27.17;24.37;;;16.70;99.90;;;;;;5043132;28;20455;-53
2023/04/09 11:29:05;;;;;;;27.47;24.50;;;16.90;99.90;;;;;;5044670;28;22517;-55
2023/04/09 11:31:30;;;;;;;27.43;24.57;;;16.60;99.90;;;;;;5047544;28;20496;-54
2023/04/09 11:33:56;;;;;;;31.70;26.50;;;16.50;99.90;;;;;;5048493;28;20437;-54
2023/04/09 11:36:22;;;;;;;24.07;21.50;;;16.70;99.90;;;;;;5047541;28;20239;-56
2023/04/09 11:38:49;;;;;;;25.27;21.20;;;16.60;99.90;;;;;;5050040;28;20685;-54
2023/04/09 11:41:15;;;;;;;23.67;21.17;;;16.80;99.90;;;;;;5042443;28;20571;-53
2023/04/09 11:43:41;;;;;;;24.60;22.10;;;17.10;99.90;;;;;;5038576;28;20470;-53
2023/04/09 11:46:07;;;;;;;27.37;24.47;;;17.10;99.90;;;;;;5047145;28;20796;-55
2023/04/09 11:48:33;;;;;;;29.13;24.97;;;17.00;99.90;;;;;;5049567;28;20177;-54
2023/04/09 11:50:59;;;;;;;26.93;23.00;;;17.10;99.90;;;;;;5045390;28;20487;-54
2023/04/09 11:53:30;;;;;;;28.63;22.50;;;17.20;99.90;;;;;;5038915;28;20473;-54
2023/04/09 11:55:56;;;;;;;23.80;21.30;;;17.60;99.90;;;;;;5048924;28;20786;-55
2023/04/09 11:58:23;;;;;;;25.93;23.43;;;18.00;99.90;;;;;;5045642;28;20433;-54
2023/04/09 12:00:53;;;;;;;22.57;20.23;;;17.40;99.90;;;;;;5042814;28;20525;-54
2023/04/09 12:03:29;;;;;;;32.93;26.90;;;16.80;99.90;;;;;;5039880;28;20482;-54
2023/04/09 12:05:55;;;;;;;23.17;20.80;;;16.40;99.90;;;;;;5046189;28;20428;-54
2023/04/09 12:08:26;;;;;;;26.03;23.33;;;16.60;99.90;;;;;;5045403;28;20443;-55
2023/04/09 12:10:51;;;;;;;23.50;20.70;;;16.80;99.90;;;;;;5047874;28;20192;-54
2023/04/09 12:13:19;;;;;;;25.43;22.70;;;16.90;99.90;;;;;;5049322;28;20469;-54
2023/04/09 12:15:48;;;;;;;23.03;20.77;;;17.00;99.90;;;;;;5046809;28;20433;-54
2023/04/09 12:18:13;;;;;;;26.50;23.70;;;16.80;99.90;;;;;;5047315;28;20482;-54
2023/04/09 12:20:44;;;;;;;23.83;21.33;;;17.00;99.90;;;;;;5048912;28;20482;-55
2023/04/09 12:23:11;;;;;;;23.83;21.30;;;17.20;99.90;;;;;;5048942;28;20323;-54
2023/04/09 12:25:38;;;;;;;21.73;19.53;;;17.40;99.90;;;;;;5049584;28;20526;-53
2023/04/09 12:28:06;;;;;;;23.30;20.90;;;17.30;99.90;;;;;;5060316;28;20483;-54
2023/04/09 12:30:33;;;;;;;22.50;20.20;;;17.20;99.90;;;;;;5045966;28;20467;-53
2023/04/09 12:32:59;;;;;;;23.67;21.17;;;16.90;99.90;;;;;;5048109;28;20442;-53
2023/04/09 12:35:25;;;;;;;21.50;19.20;;;16.60;99.90;;;;;;5049199;28;20432;-53
2023/04/09 12:37:50;;;;;;;20.93;18.83;;;16.60;99.90;;;;;;5048782;28;20434;-54
2023/04/09 12:40:16;;;;;;;23.50;21.00;;;16.80;99.90;;;;;;5048840;28;20220;-54